KBFF

Western Nebraska Regional / William B Heilig Field Airport

Scottsbluff, Nebraska, USA
METAR KBFF 212003Z AUTO 01018KT 1SM -SN BR BKN029 OVC039 M02/M03 A2990 RMK AO2 P0000 T10171033
Observed Flight Rules
Jan-21 @ 20:03 UTC (26 minutes ago) Instrument Flight Rules
Wind Visibility Clouds Conditions
10° at 18 knots 1 miles
  • Broken at 2,900' AGL
  • Overcast at 3,900' AGL
  • Light Snow
  • Mist
Temperatures Readings Precipitation
Current -2°C / 28°F
Dewpoint -3°C / 27°F
Humidity 93%
Altimeter 29.9" Hg
Pressure 1013 hPa
Elevation 1203
Current Rain 0.005
METAR KBFF 212003Z AUTO 01018KT 1SM -SN BR BKN029 OVC039 M02/M03 A2990 RMK AO2 P0000 T10171033
Observed Flight Rules
Jan-21 @ 20:03 UTC
(26 minutes ago)
IFR
Wind Visibility
10° at 18 knots 1 miles
Clouds
  • Broken at 2,900' AGL
  • Overcast at 3,900' AGL
Conditions
  • Light Snow
  • Mist
Temperature Dewpoint
-2°C / 28°F -3°C / 27°F
Humidity Altimeter Pressure
93% 29.9" Hg 1013 hPa
Current Rain
0.005